sensor_id;sensor_type;location;lat;lon;timestamp;pressure;altitude;pressure_sealevel;temperature;humidity
82353;BME280;71954;47.430;18.920;2023-09-19T00:00:41;99338.97;;;23.33;57.35
82353;BME280;71954;47.430;18.920;2023-09-19T00:03:10;99336.28;;;23.33;57.25
82353;BME280;71954;47.430;18.920;2023-09-19T00:05:39;99338.38;;;23.31;57.27
82353;BME280;71954;47.430;18.920;2023-09-19T00:08:06;99343.56;;;23.32;57.25
82353;BME280;71954;47.430;18.920;2023-09-19T00:10:33;99339.78;;;23.33;57.07
82353;BME280;71954;47.430;18.920;2023-09-19T00:13:04;99337.31;;;23.32;57.61
82353;BME280;71954;47.430;18.920;2023-09-19T00:15:39;99341.91;;;23.31;57.53
82353;BME280;71954;47.430;18.920;2023-09-19T00:18:07;99343.13;;;23.35;57.50
82353;BME280;71954;47.430;18.920;2023-09-19T00:20:36;99343.31;;;23.34;57.62
82353;BME280;71954;47.430;18.920;2023-09-19T00:23:04;99339.78;;;23.33;57.81
82353;BME280;71954;47.430;18.920;2023-09-19T00:25:35;99335.44;;;23.32;58.13
82353;BME280;71954;47.430;18.920;2023-09-19T00:28:04;99343.56;;;23.32;57.70
82353;BME280;71954;47.430;18.920;2023-09-19T00:30:31;99340.03;;;23.32;57.42
82353;BME280;71954;47.430;18.920;2023-09-19T00:32:59;99341.91;;;23.31;58.04
82353;BME280;71954;47.430;18.920;2023-09-19T00:35:27;99339.03;;;23.26;58.35
82353;BME280;71954;47.430;18.920;2023-09-19T00:37:53;99337.84;;;23.16;58.72
82353;BME280;71954;47.430;18.920;2023-09-19T00:40:22;99337.69;;;23.10;59.09
82353;BME280;71954;47.430;18.920;2023-09-19T00:42:49;99336.47;;;23.06;59.09
82353;BME280;71954;47.430;18.920;2023-09-19T00:45:17;99329.59;;;23.04;58.82
82353;BME280;71954;47.430;18.920;2023-09-19T00:47:45;99335.03;;;23.04;59.25
82353;BME280;71954;47.430;18.920;2023-09-19T00:50:14;99335.03;;;23.04;59.18
82353;BME280;71954;47.430;18.920;2023-09-19T00:52:44;99339.59;;;23.03;59.58
82353;BME280;71954;47.430;18.920;2023-09-19T00:55:11;99339.00;;;23.01;59.69
82353;BME280;71954;47.430;18.920;2023-09-19T00:57:40;99336.13;;;22.96;59.52
82353;BME280;71954;47.430;18.920;2023-09-19T01:00:09;99340.34;;;22.86;60.25
82353;BME280;71954;47.430;18.920;2023-09-19T01:02:42;99329.56;;;22.79;60.67
82353;BME280;71954;47.430;18.920;2023-09-19T01:05:11;99332.72;;;22.76;60.59
82353;BME280;71954;47.430;18.920;2023-09-19T01:07:39;99341.69;;;22.70;60.68
82353;BME280;71954;47.430;18.920;2023-09-19T01:10:13;99332.75;;;22.63;61.03
82353;BME280;71954;47.430;18.920;2023-09-19T01:13:01;99334.47;;;22.57;61.41
82353;BME280;71954;47.430;18.920;2023-09-19T01:23:20;99325.44;;;22.32;62.54
82353;BME280;71954;47.430;18.920;2023-09-19T01:26:02;99333.34;;;22.33;62.31
82353;BME280;71954;47.430;18.920;2023-09-19T01:28:43;99325.22;;;22.33;62.83
82353;BME280;71954;47.430;18.920;2023-09-19T01:31:14;99329.97;;;22.38;62.51
82353;BME280;71954;47.430;18.920;2023-09-19T01:34:00;99321.69;;;22.33;62.46
82353;BME280;71954;47.430;18.920;2023-09-19T01:36:33;99326.25;;;22.32;62.38
82353;BME280;71954;47.430;18.920;2023-09-19T01:39:09;99316.13;;;22.21;62.71
82353;BME280;71954;47.430;18.920;2023-09-19T01:41:59;99315.94;;;22.16;63.19
82353;BME280;71954;47.430;18.920;2023-09-19T01:44:48;99312.66;;;22.01;63.44
82353;BME280;71954;47.430;18.920;2023-09-19T01:47:26;99313.09;;;21.98;63.52
82353;BME280;71954;47.430;18.920;2023-09-19T01:52:54;99317.88;;;21.83;64.14
82353;BME280;71954;47.430;18.920;2023-09-19T01:55:26;99319.34;;;21.79;64.28
82353;BME280;71954;47.430;18.920;2023-09-19T01:58:03;99323.94;;;21.72;64.83
82353;BME280;71954;47.430;18.920;2023-09-19T02:00:33;99322.69;;;21.68;64.88
82353;BME280;71954;47.430;18.920;2023-09-19T02:03:02;99326.44;;;21.67;65.06
82353;BME280;71954;47.430;18.920;2023-09-19T02:05:30;99316.03;;;21.70;65.00
82353;BME280;71954;47.430;18.920;2023-09-19T02:07:57;99322.91;;;21.66;65.00
82353;BME280;71954;47.430;18.920;2023-09-19T02:10:25;99322.28;;;21.64;65.07
82353;BME280;71954;47.430;18.920;2023-09-19T02:12:52;99320.41;;;21.65;64.88
82353;BME280;71954;47.430;18.920;2023-09-19T02:15:18;99315.63;;;21.67;65.19
82353;BME280;71954;47.430;18.920;2023-09-19T02:17:45;99318.13;;;21.62;65.35
82353;BME280;71954;47.430;18.920;2023-09-19T02:20:12;99319.81;;;21.63;65.37
82353;BME280;71954;47.430;18.920;2023-09-19T02:22:42;99313.13;;;21.65;65.23
82353;BME280;71954;47.430;18.920;2023-09-19T02:25:10;99307.34;;;21.55;65.40
82353;BME280;71954;47.430;18.920;2023-09-19T02:27:37;99310.88;;;21.56;65.28
82353;BME280;71954;47.430;18.920;2023-09-19T02:30:04;99316.09;;;21.44;65.91
82353;BME280;71954;47.430;18.920;2023-09-19T02:32:32;99313.59;;;21.36;65.89
82353;BME280;71954;47.430;18.920;2023-09-19T02:35:02;99318.16;;;21.35;66.12
82353;BME280;71954;47.430;18.920;2023-09-19T02:37:31;99310.69;;;21.37;66.20
82353;BME280;71954;47.430;18.920;2023-09-19T02:39:59;99321.69;;;21.36;66.09
82353;BME280;71954;47.430;18.920;2023-09-19T02:42:25;99320.84;;;21.35;66.07
82353;BME280;71954;47.430;18.920;2023-09-19T02:44:52;99319.63;;;21.31;66.16
82353;BME280;71954;47.430;18.920;2023-09-19T02:47:18;99315.06;;;21.19;66.49
82353;BME280;71954;47.430;18.920;2023-09-19T02:49:46;99317.34;;;21.15;66.55
82353;BME280;71954;47.430;18.920;2023-09-19T02:52:12;99323.53;;;21.02;67.39
82353;BME280;71954;47.430;18.920;2023-09-19T02:54:41;99319.38;;;21.00;67.26
82353;BME280;71954;47.430;18.920;2023-09-19T02:57:08;99306.91;;;20.99;67.09
82353;BME280;71954;47.430;18.920;2023-09-19T02:59:36;99303.59;;;20.90;67.30
82353;BME280;71954;47.430;18.920;2023-09-19T03:02:03;99305.25;;;20.85;67.55
82353;BME280;71954;47.430;18.920;2023-09-19T03:04:31;99309.81;;;20.78;67.79
82353;BME280;71954;47.430;18.920;2023-09-19T03:06:59;99321.63;;;20.77;68.23
82353;BME280;71954;47.430;18.920;2023-09-19T03:09:27;99324.97;;;20.79;67.94
82353;BME280;71954;47.430;18.920;2023-09-19T03:11:54;99333.28;;;20.84;67.86
82353;BME280;71954;47.430;18.920;2023-09-19T03:14:20;99333.28;;;20.84;67.59
82353;BME280;71954;47.430;18.920;2023-09-19T03:16:47;99329.72;;;20.77;67.77
82353;BME280;71954;47.430;18.920;2023-09-19T03:19:14;99317.69;;;20.73;68.00
82353;BME280;71954;47.430;18.920;2023-09-19T03:21:41;99328.66;;;20.64;68.24
82353;BME280;71954;47.430;18.920;2023-09-19T03:24:08;99320.16;;;20.61;68.52
82353;BME280;71954;47.430;18.920;2023-09-19T03:26:34;99330.53;;;20.70;68.03
82353;BME280;71954;47.430;18.920;2023-09-19T03:29:05;99312.28;;;20.73;68.17
82353;BME280;71954;47.430;18.920;2023-09-19T03:31:36;99320.59;;;20.78;67.88
82353;BME280;71954;47.430;18.920;2023-09-19T03:34:03;99335.75;;;20.79;68.01
82353;BME280;71954;47.430;18.920;2023-09-19T03:36:30;99330.97;;;20.81;68.19
82353;BME280;71954;47.430;18.920;2023-09-19T03:38:57;99332.81;;;20.60;68.81
82353;BME280;71954;47.430;18.920;2023-09-19T03:41:23;99322.00;;;20.54;68.86
82353;BME280;71954;47.430;18.920;2023-09-19T03:43:50;99328.63;;;20.58;69.03
82353;BME280;71954;47.430;18.920;2023-09-19T03:46:17;99328.66;;;20.64;68.94
82353;BME280;71954;47.430;18.920;2023-09-19T03:48:43;99330.31;;;20.65;68.93
82353;BME280;71954;47.430;18.920;2023-09-19T03:51:10;99333.63;;;20.61;68.54
82353;BME280;71954;47.430;18.920;2023-09-19T03:53:37;99335.50;;;20.60;68.83
82353;BME280;71954;47.430;18.920;2023-09-19T03:56:04;99341.72;;;20.61;68.72
82353;BME280;71954;47.430;18.920;2023-09-19T03:58:31;99336.34;;;20.67;68.67
82353;BME280;71954;47.430;18.920;2023-09-19T04:00:58;99335.09;;;20.70;68.45
82353;BME280;71954;47.430;18.920;2023-09-19T04:03:24;99336.16;;;20.76;68.44
82353;BME280;71954;47.430;18.920;2023-09-19T04:06:01;99331.41;;;20.84;68.57
82353;BME280;71954;47.430;18.920;2023-09-19T04:08:28;99335.75;;;20.92;68.53
82353;BME280;71954;47.430;18.920;2023-09-19T04:10:55;99339.72;;;21.02;68.21
82353;BME280;71954;47.430;18.920;2023-09-19T04:13:23;99337.63;;;21.04;67.94
82353;BME280;71954;47.430;18.920;2023-09-19T04:15:49;99343.03;;;21.11;67.65
82353;BME280;71954;47.430;18.920;2023-09-19T04:18:16;99342.25;;;21.17;67.71
82353;BME280;71954;47.430;18.920;2023-09-19T04:20:47;99346.63;;;21.25;67.60
82353;BME280;71954;47.430;18.920;2023-09-19T04:23:13;99353.69;;;21.26;67.94
82353;BME280;71954;47.430;18.920;2023-09-19T04:25:40;99355.56;;;21.25;67.48
82353;BME280;71954;47.430;18.920;2023-09-19T04:28:07;99367.19;;;21.26;66.81
82353;BME280;71954;47.430;18.920;2023-09-19T04:30:34;99368.00;;;21.26;66.13
82353;BME280;71954;47.430;18.920;2023-09-19T04:33:00;99370.06;;;21.24;66.06
82353;BME280;71954;47.430;18.920;2023-09-19T04:35:29;99367.19;;;21.19;65.89
82353;BME280;71954;47.430;18.920;2023-09-19T04:37:58;99371.94;;;21.17;66.03
82353;BME280;71954;47.430;18.920;2023-09-19T04:40:24;99375.88;;;21.15;66.38
82353;BME280;71954;47.430;18.920;2023-09-19T04:42:54;99399.50;;;20.99;67.19
82353;BME280;71954;47.430;18.920;2023-09-19T04:45:24;99390.53;;;20.92;67.68
82353;BME280;71954;47.430;18.920;2023-09-19T04:47:51;99400.28;;;20.87;68.24
82353;BME280;71954;47.430;18.920;2023-09-19T04:50:17;99396.53;;;20.75;68.80
82353;BME280;71954;47.430;18.920;2023-09-19T04:52:45;99390.28;;;20.61;68.73
82353;BME280;71954;47.430;18.920;2023-09-19T04:55:15;99397.06;;;20.50;69.55
82353;BME280;71954;47.430;18.920;2023-09-19T04:57:46;99403.25;;;20.44;69.86
82353;BME280;71954;47.430;18.920;2023-09-19T05:00:15;99396.19;;;20.37;70.10
82353;BME280;71954;47.430;18.920;2023-09-19T05:02:43;99406.31;;;20.35;69.94
82353;BME280;71954;47.430;18.920;2023-09-19T05:05:10;99417.69;;;20.30;70.26
82353;BME280;71954;47.430;18.920;2023-09-19T05:07:43;99423.88;;;20.24;70.06
82353;BME280;71954;47.430;18.920;2023-09-19T05:10:14;99412.41;;;20.15;69.99
82353;BME280;71954;47.430;18.920;2023-09-19T05:12:41;99414.03;;;20.10;69.54
82353;BME280;71954;47.430;18.920;2023-09-19T05:15:08;99418.16;;;20.06;70.01
82353;BME280;71954;47.430;18.920;2023-09-19T05:17:35;99426.81;;;19.95;70.20
82353;BME280;71954;47.430;18.920;2023-09-19T05:20:03;99435.06;;;19.93;69.77
82353;BME280;71954;47.430;18.920;2023-09-19T05:23:02;99432.97;;;19.88;69.50
82353;BME280;71954;47.430;18.920;2023-09-19T05:25:32;99446.81;;;19.85;69.50
82353;BME280;71954;47.430;18.920;2023-09-19T05:27:59;99438.75;;;19.85;69.40
82353;BME280;71954;47.430;18.920;2023-09-19T05:30:27;99442.88;;;19.81;69.89
82353;BME280;71954;47.430;18.920;2023-09-19T05:32:53;99446.78;;;19.79;69.39
82353;BME280;71954;47.430;18.920;2023-09-19T05:35:21;99435.94;;;19.72;70.20
82353;BME280;71954;47.430;18.920;2023-09-19T05:37:51;99429.94;;;19.70;69.56
82353;BME280;71954;47.430;18.920;2023-09-19T05:40:18;99434.72;;;19.75;69.98
82353;BME280;71954;47.430;18.920;2023-09-19T05:42:46;99431.25;;;19.81;69.84
82353;BME280;71954;47.430;18.920;2023-09-19T05:45:13;99439.19;;;19.89;69.44
82353;BME280;71954;47.430;18.920;2023-09-19T05:47:40;99436.34;;;19.97;69.33
82353;BME280;71954;47.430;18.920;2023-09-19T05:50:12;99439.25;;;20.02;68.71
82353;BME280;71954;47.430;18.920;2023-09-19T05:52:38;99440.09;;;20.03;68.73
82353;BME280;71954;47.430;18.920;2023-09-19T05:55:05;99444.28;;;20.05;68.33
82353;BME280;71954;47.430;18.920;2023-09-19T05:57:36;99443.63;;;20.03;68.67
82353;BME280;71954;47.430;18.920;2023-09-19T06:00:06;99444.88;;;20.01;68.76
82353;BME280;71954;47.430;18.920;2023-09-19T06:02:37;99443.16;;;19.93;68.79
82353;BME280;71954;47.430;18.920;2023-09-19T06:05:05;99451.19;;;19.86;69.10
82353;BME280;71954;47.430;18.920;2023-09-19T06:07:38;99451.97;;;19.80;69.53
82353;BME280;71954;47.430;18.920;2023-09-19T06:10:05;99457.72;;;19.77;69.93
82353;BME280;71954;47.430;18.920;2023-09-19T06:12:32;99457.13;;;19.75;69.78
82353;BME280;71954;47.430;18.920;2023-09-19T06:15:04;99465.31;;;19.67;70.42
82353;BME280;71954;47.430;18.920;2023-09-19T06:17:35;99467.13;;;19.60;70.66
82353;BME280;71954;47.430;18.920;2023-09-19T06:20:07;99468.53;;;19.56;70.90
82353;BME280;71954;47.430;18.920;2023-09-19T06:22:41;99463.16;;;19.56;71.03
82353;BME280;71954;47.430;18.920;2023-09-19T06:25:10;99465.84;;;19.56;71.55
82353;BME280;71954;47.430;18.920;2023-09-19T06:27:47;99468.97;;;19.60;71.85
82353;BME280;71954;47.430;18.920;2023-09-19T06:30:13;99472.06;;;19.57;71.82
82353;BME280;71954;47.430;18.920;2023-09-19T06:32:41;99476.63;;;19.56;72.44
82353;BME280;71954;47.430;18.920;2023-09-19T06:35:12;99472.59;;;19.45;72.48
82353;BME280;71954;47.430;18.920;2023-09-19T06:37:39;99485.94;;;19.39;73.40
82353;BME280;71954;47.430;18.920;2023-09-19T06:42:35;99482.47;;;19.24;74.53
82353;BME280;71954;47.430;18.920;2023-09-19T06:45:04;99487.84;;;19.24;75.15
82353;BME280;71954;47.430;18.920;2023-09-19T06:47:32;99493.63;;;19.21;75.39
82353;BME280;71954;47.430;18.920;2023-09-19T06:49:59;99509.28;;;19.17;75.52
82353;BME280;71954;47.430;18.920;2023-09-19T06:52:28;99506.16;;;19.14;76.47
82353;BME280;71954;47.430;18.920;2023-09-19T06:54:55;99509.72;;;18.99;77.43
82353;BME280;71954;47.430;18.920;2023-09-19T06:57:21;99520.69;;;18.98;77.27
82353;BME280;71954;47.430;18.920;2023-09-19T06:59:48;99534.31;;;18.96;77.94
82353;BME280;71954;47.430;18.920;2023-09-19T07:02:15;99529.28;;;18.93;78.19
82353;BME280;71954;47.430;18.920;2023-09-19T07:04:42;99536.75;;;18.91;78.40
82353;BME280;71954;47.430;18.920;2023-09-19T07:07:08;99546.47;;;18.92;77.92
82353;BME280;71954;47.430;18.920;2023-09-19T07:09:36;99547.03;;;18.88;78.15
82353;BME280;71954;47.430;18.920;2023-09-19T07:12:03;99544.53;;;18.86;78.73
82353;BME280;71954;47.430;18.920;2023-09-19T07:14:32;99552.59;;;18.86;78.16
82353;BME280;71954;47.430;18.920;2023-09-19T07:16:58;99554.16;;;18.81;78.66
82353;BME280;71954;47.430;18.920;2023-09-19T07:19:26;99551.03;;;18.77;79.27
82353;BME280;71954;47.430;18.920;2023-09-19T07:21:58;99547.69;;;18.75;79.21
82353;BME280;71954;47.430;18.920;2023-09-19T07:24:25;99553.72;;;18.77;79.27
82353;BME280;71954;47.430;18.920;2023-09-19T07:26:53;99551.41;;;18.74;79.20
82353;BME280;71954;47.430;18.920;2023-09-19T07:29:19;99551.09;;;18.69;79.92
82353;BME280;71954;47.430;18.920;2023-09-19T07:31:46;99554.28;;;18.73;78.89
82353;BME280;71954;47.430;18.920;2023-09-19T07:34:14;99561.50;;;18.72;78.84
82353;BME280;71954;47.430;18.920;2023-09-19T07:36:40;99563.25;;;18.65;79.40
82353;BME280;71954;47.430;18.920;2023-09-19T07:39:08;99561.22;;;18.67;80.36
82353;BME280;71954;47.430;18.920;2023-09-19T07:41:48;99563.91;;;18.67;79.69
82353;BME280;71954;47.430;18.920;2023-09-19T07:44:16;99569.94;;;18.69;79.89
82353;BME280;71954;47.430;18.920;2023-09-19T07:46:43;99568.56;;;18.73;79.41
82353;BME280;71954;47.430;18.920;2023-09-19T07:49:10;99580.34;;;18.72;80.23
82353;BME280;71954;47.430;18.920;2023-09-19T07:51:38;99576.81;;;18.72;80.58
82353;BME280;71954;47.430;18.920;2023-09-19T07:54:05;99584.50;;;18.75;80.27
82353;BME280;71954;47.430;18.920;2023-09-19T07:56:32;99581.63;;;18.76;80.61
82353;BME280;71954;47.430;18.920;2023-09-19T07:58:59;99587.72;;;18.70;81.54
82353;BME280;71954;47.430;18.920;2023-09-19T08:01:25;99592.47;;;18.68;81.08
82353;BME280;71954;47.430;18.920;2023-09-19T08:03:54;99591.44;;;18.69;81.66
82353;BME280;71954;47.430;18.920;2023-09-19T08:06:21;99603.88;;;18.70;81.33
82353;BME280;71954;47.430;18.920;2023-09-19T08:08:51;99604.44;;;18.65;81.50
82353;BME280;71954;47.430;18.920;2023-09-19T08:11:20;99607.56;;;18.69;81.85
82353;BME280;71954;47.430;18.920;2023-09-19T08:13:48;99610.09;;;18.70;81.75
82353;BME280;71954;47.430;18.920;2023-09-19T08:16:16;99611.19;;;18.76;81.39
82353;BME280;71954;47.430;18.920;2023-09-19T08:18:42;99615.22;;;18.80;79.81
82353;BME280;71954;47.430;18.920;2023-09-19T08:21:11;99617.50;;;18.83;80.08
82353;BME280;71954;47.430;18.920;2023-09-19T08:23:40;99610.72;;;18.87;79.97
82353;BME280;71954;47.430;18.920;2023-09-19T08:26:07;99616.09;;;18.87;78.97
82353;BME280;71954;47.430;18.920;2023-09-19T08:28:35;99616.78;;;18.89;79.20
82353;BME280;71954;47.430;18.920;2023-09-19T08:31:06;99625.50;;;18.91;79.91
82353;BME280;71954;47.430;18.920;2023-09-19T08:33:33;99625.28;;;18.93;79.33
82353;BME280;71954;47.430;18.920;2023-09-19T08:36:01;99637.09;;;18.92;79.97
82353;BME280;71954;47.430;18.920;2023-09-19T08:38:31;99644.78;;;18.95;79.78
82353;BME280;71954;47.430;18.920;2023-09-19T08:41:00;99660.06;;;18.94;79.50
82353;BME280;71954;47.430;18.920;2023-09-19T08:43:27;99672.06;;;18.92;79.82
82353;BME280;71954;47.430;18.920;2023-09-19T08:45:58;99679.00;;;18.86;80.15
82353;BME280;71954;47.430;18.920;2023-09-19T08:48:30;99681.50;;;18.88;79.57
82353;BME280;71954;47.430;18.920;2023-09-19T08:56:17;99689.94;;;18.99;79.31
82353;BME280;71954;47.430;18.920;2023-09-19T08:59:11;99690.69;;;18.93;80.56
82353;BME280;71954;47.430;18.920;2023-09-19T09:01:40;99679.56;;;18.96;80.06
82353;BME280;71954;47.430;18.920;2023-09-19T09:04:09;99662.22;;;18.99;80.57
82353;BME280;71954;47.430;18.920;2023-09-19T09:06:40;99669.34;;;19.06;80.27
82353;BME280;71954;47.430;18.920;2023-09-19T09:09:10;99652.94;;;19.16;80.86
82353;BME280;71954;47.430;18.920;2023-09-19T09:11:38;99628.91;;;19.15;80.91
82353;BME280;71954;47.430;18.920;2023-09-19T09:14:07;99621.13;;;19.20;80.94
82353;BME280;71954;47.430;18.920;2023-09-19T09:16:34;99615.63;;;19.28;81.07
82353;BME280;71954;47.430;18.920;2023-09-19T09:19:01;99614.50;;;19.37;81.04
82353;BME280;71954;47.430;18.920;2023-09-19T09:21:28;99604.00;;;19.42;80.15
82353;BME280;71954;47.430;18.920;2023-09-19T09:23:54;99615.06;;;19.47;80.13
82353;BME280;71954;47.430;18.920;2023-09-19T09:26:40;99610.97;;;19.51;78.67
82353;BME280;71954;47.430;18.920;2023-09-19T09:29:07;99611.41;;;19.55;79.60
82353;BME280;71954;47.430;18.920;2023-09-19T09:31:34;99620.81;;;19.59;78.97
82353;BME280;71954;47.430;18.920;2023-09-19T09:34:01;99626.25;;;19.65;78.82
82353;BME280;71954;47.430;18.920;2023-09-19T09:36:54;99637.41;;;19.62;79.99
82353;BME280;71954;47.430;18.920;2023-09-19T09:39:31;99644.75;;;19.54;79.21
82353;BME280;71954;47.430;18.920;2023-09-19T09:41:58;99657.09;;;19.48;80.02
82353;BME280;71954;47.430;18.920;2023-09-19T09:44:25;99664.88;;;19.43;80.01
82353;BME280;71954;47.430;18.920;2023-09-19T09:46:53;99656.94;;;19.35;81.22
82353;BME280;71954;47.430;18.920;2023-09-19T09:49:26;99652.84;;;19.39;81.02
82353;BME280;71954;47.430;18.920;2023-09-19T09:52:04;99649.56;;;19.43;80.55
82353;BME280;71954;47.430;18.920;2023-09-19T09:55:02;99648.00;;;19.49;82.07
82353;BME280;71954;47.430;18.920;2023-09-19T09:57:34;99655.91;;;19.50;80.86
82353;BME280;71954;47.430;18.920;2023-09-19T10:00:02;99657.94;;;19.63;83.80
82353;BME280;71954;47.430;18.920;2023-09-19T10:02:39;99658.44;;;19.73;82.27
82353;BME280;71954;47.430;18.920;2023-09-19T10:05:20;99644.97;;;19.73;82.33
82353;BME280;71954;47.430;18.920;2023-09-19T10:07:53;99652.44;;;19.92;80.45
82353;BME280;71954;47.430;18.920;2023-09-19T10:10:36;99646.81;;;20.09;80.59
82353;BME280;71954;47.430;18.920;2023-09-19T10:16:25;99661.31;;;20.29;78.43
82353;BME280;71954;47.430;18.920;2023-09-19T10:18:54;99656.84;;;20.36;80.18
82353;BME280;71954;47.430;18.920;2023-09-19T10:21:24;99657.75;;;20.43;78.70
82353;BME280;71954;47.430;18.920;2023-09-19T10:23:52;99668.53;;;20.43;77.30
82353;BME280;71954;47.430;18.920;2023-09-19T10:26:23;99668.13;;;20.46;79.08
82353;BME280;71954;47.430;18.920;2023-09-19T10:28:51;99669.84;;;20.54;78.08
82353;BME280;71954;47.430;18.920;2023-09-19T10:31:21;99671.72;;;20.53;77.93
82353;BME280;71954;47.430;18.920;2023-09-19T10:33:51;99668.13;;;20.46;77.68
82353;BME280;71954;47.430;18.920;2023-09-19T10:36:20;99672.75;;;20.52;77.24
82353;BME280;71954;47.430;18.920;2023-09-19T10:38:49;99676.94;;;20.55;76.32
82353;BME280;71954;47.430;18.920;2023-09-19T10:41:19;99676.03;;;20.48;76.23
82353;BME280;71954;47.430;18.920;2023-09-19T10:43:48;99668.19;;;20.53;75.82
82353;BME280;71954;47.430;18.920;2023-09-19T10:46:15;99674.00;;;20.56;76.76
82353;BME280;71954;47.430;18.920;2023-09-19T10:48:42;99684.03;;;20.62;76.44
82353;BME280;71954;47.430;18.920;2023-09-19T10:51:21;99690.72;;;20.66;75.15
82353;BME280;71954;47.430;18.920;2023-09-19T10:53:54;99690.19;;;20.56;77.18
82353;BME280;71954;47.430;18.920;2023-09-19T10:56:35;99684.41;;;20.59;76.67
82353;BME280;71954;47.430;18.920;2023-09-19T11:01:56;99688.50;;;20.77;75.97
82353;BME280;71954;47.430;18.920;2023-09-19T11:04:29;99688.97;;;20.87;77.34
82353;BME280;71954;47.430;18.920;2023-09-19T11:07:03;99696.97;;;21.01;76.07
82353;BME280;71954;47.430;18.920;2023-09-19T11:09:53;99693.16;;;21.17;75.45
82353;BME280;71954;47.430;18.920;2023-09-19T11:15:02;99683.78;;;21.47;77.49
82353;BME280;71954;47.430;18.920;2023-09-19T11:17:35;99692.13;;;21.59;74.46
82353;BME280;71954;47.430;18.920;2023-09-19T11:30:41;99679.19;;;21.96;67.10
82353;BME280;71954;47.430;18.920;2023-09-19T11:33:16;99685.06;;;22.06;66.45
82353;BME280;71954;47.430;18.920;2023-09-19T11:43:49;99690.47;;;22.12;64.38
82353;BME280;71954;47.430;18.920;2023-09-19T11:46:20;99675.50;;;22.16;65.01
82353;BME280;71954;47.430;18.920;2023-09-19T11:48:53;99676.38;;;22.23;65.52
82353;BME280;71954;47.430;18.920;2023-09-19T11:51:23;99675.75;;;22.35;64.28
82353;BME280;71954;47.430;18.920;2023-09-19T11:53:55;99670.34;;;22.41;64.88
82353;BME280;71954;47.430;18.920;2023-09-19T11:56:24;99674.28;;;22.52;64.94
82353;BME280;71954;47.430;18.920;2023-09-19T11:58:55;99672.44;;;22.59;64.37
82353;BME280;71954;47.430;18.920;2023-09-19T12:01:32;99669.28;;;22.62;63.02
82353;BME280;71954;47.430;18.920;2023-09-19T12:04:02;99673.66;;;22.63;62.47
82353;BME280;71954;47.430;18.920;2023-09-19T12:06:31;99676.81;;;22.66;61.62
82353;BME280;71954;47.430;18.920;2023-09-19T12:09:02;99668.88;;;22.71;61.44
82353;BME280;71954;47.430;18.920;2023-09-19T12:11:41;99673.69;;;22.76;60.99
82353;BME280;71954;47.430;18.920;2023-09-19T12:14:09;99675.56;;;22.82;60.67
82353;BME280;71954;47.430;18.920;2023-09-19T12:16:36;99680.78;;;22.90;59.97
82353;BME280;71954;47.430;18.920;2023-09-19T12:19:18;99669.50;;;23.06;59.92
82353;BME280;71954;47.430;18.920;2023-09-19T12:22:01;99668.22;;;23.16;59.83
82353;BME280;71954;47.430;18.920;2023-09-19T12:24:34;99670.72;;;23.17;60.12
82353;BME280;71954;47.430;18.920;2023-09-19T12:27:06;99667.34;;;23.22;59.64
82353;BME280;71954;47.430;18.920;2023-09-19T12:29:46;99680.50;;;23.25;59.33
82353;BME280;71954;47.430;18.920;2023-09-19T12:32:15;99680.50;;;23.25;59.39
82353;BME280;71954;47.430;18.920;2023-09-19T12:34:51;99679.03;;;23.22;58.56
82353;BME280;71954;47.430;18.920;2023-09-19T12:37:20;99687.97;;;23.23;58.37
82353;BME280;71954;47.430;18.920;2023-09-19T12:40:03;99692.19;;;23.19;59.20
82353;BME280;71954;47.430;18.920;2023-09-19T12:42:41;99693.19;;;23.24;59.36
82353;BME280;71954;47.430;18.920;2023-09-19T12:45:08;99694.69;;;23.20;58.64
82353;BME280;71954;47.430;18.920;2023-09-19T12:47:35;99687.38;;;23.21;58.93
82353;BME280;71954;47.430;18.920;2023-09-19T12:52:37;99689.47;;;23.19;59.89
82353;BME280;71954;47.430;18.920;2023-09-19T12:55:04;99687.16;;;23.16;58.61
82353;BME280;71954;47.430;18.920;2023-09-19T12:57:35;99678.63;;;23.19;58.66
82353;BME280;71954;47.430;18.920;2023-09-19T13:00:05;99677.56;;;23.26;58.27
82353;BME280;71954;47.430;18.920;2023-09-19T13:02:32;99681.06;;;23.33;57.39
82353;BME280;71954;47.430;18.920;2023-09-19T13:04:59;99676.47;;;23.40;57.23
82353;BME280;71954;47.430;18.920;2023-09-19T13:07:43;99669.81;;;23.43;57.75
82353;BME280;71954;47.430;18.920;2023-09-19T13:10:10;99674.78;;;23.46;58.45
82353;BME280;71954;47.430;18.920;2023-09-19T13:12:38;99675.63;;;23.53;56.76
82353;BME280;71954;47.430;18.920;2023-09-19T13:15:12;99684.56;;;23.60;56.42
82353;BME280;71954;47.430;18.920;2023-09-19T13:17:57;99682.66;;;23.67;56.94
82353;BME280;71954;47.430;18.920;2023-09-19T13:20:27;99694.72;;;23.71;56.28
82353;BME280;71954;47.430;18.920;2023-09-19T13:22:54;99684.06;;;23.76;56.47
82353;BME280;71954;47.430;18.920;2023-09-19T13:25:25;99687.19;;;23.80;55.99
82353;BME280;71954;47.430;18.920;2023-09-19T13:27:55;99685.78;;;23.71;56.28
82353;BME280;71954;47.430;18.920;2023-09-19T13:30:26;99686.06;;;23.56;56.41
82353;BME280;71954;47.430;18.920;2023-09-19T13:35:38;99682.31;;;23.50;57.02
82353;BME280;71954;47.430;18.920;2023-09-19T13:38:06;99695.63;;;23.52;56.42
82353;BME280;71954;47.430;18.920;2023-09-19T13:40:38;99704.81;;;23.51;57.59
82353;BME280;71954;47.430;18.920;2023-09-19T13:43:08;99699.19;;;23.52;56.56
82353;BME280;71954;47.430;18.920;2023-09-19T13:45:35;99710.03;;;23.52;56.71
82353;BME280;71954;47.430;18.920;2023-09-19T13:48:03;99709.41;;;23.50;56.89
82353;BME280;71954;47.430;18.920;2023-09-19T13:50:30;99712.53;;;23.54;56.27
82353;BME280;71954;47.430;18.920;2023-09-19T13:52:57;99708.78;;;23.48;56.39
82353;BME280;71954;47.430;18.920;2023-09-19T13:55:27;99707.50;;;23.51;56.97